createdAt,value
2019-05-03T00:02:28.813Z,19.60
2019-05-03T00:05:07.161Z,20.83
2019-05-03T00:07:34.750Z,23.13
2019-05-03T00:10:02.835Z,25.30
2019-05-03T00:12:30.464Z,21.57
2019-05-03T00:15:04.081Z,23.90
2019-05-03T00:17:32.485Z,17.70
2019-05-03T00:20:02.199Z,19.20
2019-05-03T00:22:29.534Z,16.73
2019-05-03T00:25:06.058Z,18.63
2019-05-03T00:27:26.423Z,20.47
2019-05-03T00:29:53.978Z,21.40
2019-05-03T00:32:23.725Z,18.93
2019-05-03T00:34:53.193Z,22.07
2019-05-03T00:37:22.748Z,16.83
2019-05-03T00:40:06.769Z,19.30
2019-05-03T00:42:34.286Z,18.73
2019-05-03T00:45:02.321Z,19.00
2019-05-03T00:47:29.962Z,19.90
2019-05-03T00:49:57.926Z,20.30
2019-05-03T00:52:25.736Z,18.63
2019-05-03T00:54:53.442Z,20.10
2019-05-03T00:57:22.710Z,19.27
2019-05-03T00:59:50.386Z,17.13
2019-05-03T01:02:18.048Z,16.83
2019-05-03T01:04:45.606Z,19.53
2019-05-03T01:07:13.110Z,17.77
2019-05-03T01:09:42.270Z,18.90
2019-05-03T01:12:10.128Z,18.07
2019-05-03T01:14:38.977Z,17.87
2019-05-03T01:17:06.516Z,17.33
2019-05-03T01:19:34.153Z,20.23
2019-05-03T01:22:03.159Z,19.13
2019-05-03T01:24:34.022Z,21.63
2019-05-03T01:27:02.047Z,21.43
2019-05-03T01:29:29.607Z,19.00
2019-05-03T01:31:57.164Z,19.27
2019-05-03T01:34:24.700Z,16.70
2019-05-03T01:36:52.198Z,15.93
2019-05-03T01:39:22.065Z,20.73
2019-05-03T01:41:51.781Z,17.23
2019-05-03T01:44:19.619Z,18.20
2019-05-03T01:46:48.479Z,16.50
2019-05-03T01:49:35.508Z,17.53
2019-05-03T01:52:28.574Z,16.67
2019-05-03T01:54:56.192Z,17.60
2019-05-03T01:57:23.750Z,20.03
2019-05-03T01:59:52.066Z,17.47
2019-05-03T02:02:37.922Z,19.67
2019-05-03T02:05:27.890Z,19.17
2019-05-03T02:07:55.429Z,18.50
2019-05-03T02:10:22.972Z,17.10
2019-05-03T02:12:52.167Z,18.43
2019-05-03T02:15:21.786Z,18.90
2019-05-03T02:17:51.911Z,18.67
2019-05-03T02:20:23.170Z,15.43
2019-05-03T02:22:57.483Z,18.03
2019-05-03T02:25:28.839Z,19.00
2019-05-03T02:27:57.657Z,20.10
2019-05-03T02:30:27.406Z,19.20
2019-05-03T02:32:59.217Z,23.37
2019-05-03T02:35:28.073Z,22.63
2019-05-03T02:37:59.497Z,26.53
2019-05-03T02:40:33.793Z,24.27
2019-05-03T02:43:12.684Z,23.00
2019-05-03T02:45:59.003Z,22.87
2019-05-03T02:48:40.253Z,20.80
2019-05-03T02:51:12.056Z,19.70
2019-05-03T02:53:45.493Z,23.00
2019-05-03T02:56:21.058Z,20.73
2019-05-03T02:58:46.085Z,19.23
2019-05-03T03:01:16.210Z,20.50
2019-05-03T03:03:45.732Z,19.20
2019-05-03T03:06:17.405Z,21.57
2019-05-03T03:08:47.427Z,18.30
2019-05-03T03:11:16.868Z,17.23
2019-05-03T03:13:46.072Z,24.37
2019-05-03T03:16:16.288Z,21.33
2019-05-03T03:18:45.829Z,24.40
2019-05-03T03:21:16.595Z,24.67
2019-05-03T03:24:08.242Z,17.57
2019-05-03T03:26:42.908Z,18.50
2019-05-03T03:29:09.794Z,20.67
2019-05-03T03:32:29.360Z,21.87
2019-05-03T03:35:11.078Z,22.23
2019-05-03T03:37:35.301Z,20.37
2019-05-03T03:40:06.032Z,17.50
2019-05-03T03:42:38.206Z,19.60
2019-05-03T03:45:07.007Z,19.60
2019-05-03T03:47:37.524Z,20.90
2019-05-03T03:50:09.336Z,19.27
2019-05-03T03:52:37.224Z,21.03
2019-05-03T03:55:07.725Z,21.40
2019-05-03T03:57:36.577Z,24.07
2019-05-03T04:00:06.955Z,19.80
2019-05-03T04:02:35.505Z,23.83
2019-05-03T04:05:05.586Z,22.03
2019-05-03T04:07:35.928Z,24.13
2019-05-03T04:10:19.554Z,22.97
2019-05-03T04:12:52.647Z,20.40
2019-05-03T04:15:47.877Z,22.97
2019-05-03T04:18:26.785Z,21.27
2019-05-03T04:20:58.115Z,22.33
2019-05-03T04:23:30.415Z,18.83
2019-05-03T04:26:01.090Z,20.57
2019-05-03T04:28:30.855Z,23.07
2019-05-03T04:31:02.355Z,26.63
2019-05-03T04:33:30.823Z,24.83
2019-05-03T04:35:58.834Z,22.23
2019-05-03T04:38:26.489Z,22.60
2019-05-03T04:40:56.197Z,27.87
2019-05-03T04:43:26.558Z,21.60
2019-05-03T04:46:08.987Z,22.27
2019-05-03T04:48:36.594Z,23.10
2019-05-03T04:51:05.953Z,28.33
2019-05-03T04:53:38.377Z,21.90
2019-05-03T04:56:06.976Z,29.13
2019-05-03T04:58:36.488Z,25.37
2019-05-03T05:01:06.272Z,28.33
2019-05-03T05:03:36.077Z,28.53
2019-05-03T05:06:06.317Z,29.83
2019-05-03T05:08:35.597Z,27.00
2019-05-03T05:11:05.201Z,28.40
2019-05-03T05:13:32.147Z,121.43
2019-05-03T05:15:59.732Z,30.33
2019-05-03T05:18:35.549Z,40.60
2019-05-03T05:21:09.820Z,30.90
2019-05-03T05:23:56.467Z,26.73
2019-05-03T05:26:25.932Z,25.93
2019-05-03T05:28:56.631Z,28.57
2019-05-03T05:31:25.465Z,27.10
2019-05-03T05:33:54.517Z,26.40
2019-05-03T05:36:22.108Z,24.00
2019-05-03T05:38:49.679Z,27.53
2019-05-03T05:41:17.213Z,28.50
2019-05-03T05:43:44.869Z,28.60
2019-05-03T05:46:14.494Z,31.03
2019-05-03T05:48:46.518Z,30.37
2019-05-03T05:51:15.962Z,30.90
2019-05-03T05:53:44.758Z,31.60
2019-05-03T05:56:35.339Z,28.30
2019-05-03T05:59:28.336Z,27.20
2019-05-03T06:01:59.654Z,24.83
2019-05-03T06:04:27.207Z,34.50
2019-05-03T06:07:14.855Z,30.00
2019-05-03T06:10:00.571Z,28.67
2019-05-03T06:12:35.297Z,26.90
2019-05-03T06:15:07.848Z,24.80
2019-05-03T06:17:41.969Z,24.77
2019-05-03T06:20:21.641Z,30.47
2019-05-03T06:22:59.194Z,23.03
2019-05-03T06:25:31.554Z,18.13
2019-05-03T06:28:00.370Z,22.77
2019-05-03T06:30:37.544Z,21.70
2019-05-03T06:33:05.402Z,24.53
2019-05-03T06:35:34.586Z,20.90
2019-05-03T06:38:02.191Z,20.43
2019-05-03T06:40:30.160Z,22.13
2019-05-03T06:43:08.629Z,20.67
2019-05-03T06:45:27.125Z,19.30
2019-05-03T06:47:55.078Z,25.40
2019-05-03T06:50:25.242Z,22.23
2019-05-03T06:52:54.802Z,23.60
2019-05-03T06:55:24.605Z,20.30
2019-05-03T06:57:52.084Z,22.30
2019-05-03T07:00:57.694Z,28.30
2019-05-03T07:03:54.889Z,23.27
2019-05-03T07:06:37.480Z,22.27
2019-05-03T07:09:27.366Z,26.07
2019-05-03T07:11:55.572Z,21.00
2019-05-03T07:14:24.686Z,20.70
2019-05-03T07:16:52.378Z,17.43
2019-05-03T07:19:19.996Z,15.20
2019-05-03T07:21:47.819Z,16.03
2019-05-03T07:24:15.432Z,20.30
2019-05-03T07:26:44.832Z,14.00
2019-05-03T07:29:12.611Z,17.40
2019-05-03T07:31:40.380Z,15.27
2019-05-03T07:34:09.185Z,12.90
2019-05-03T07:36:36.899Z,14.10
2019-05-03T07:39:06.403Z,14.90
2019-05-03T07:41:35.631Z,14.67
2019-05-03T07:44:05.214Z,14.73
2019-05-03T07:46:34.743Z,13.77
2019-05-03T07:49:02.173Z,9.80
2019-05-03T07:51:29.722Z,11.63
2019-05-03T07:53:57.397Z,11.87
2019-05-03T07:56:44.576Z,10.90
2019-05-03T07:59:14.876Z,14.43
2019-05-03T08:01:54.531Z,10.80
2019-05-03T08:04:25.706Z,11.33
2019-05-03T08:07:01.622Z,12.60
2019-05-03T08:09:30.458Z,9.30
2019-05-03T08:11:58.441Z,9.43
2019-05-03T08:14:36.544Z,8.80
2019-05-03T08:17:56.420Z,10.43
2019-05-03T08:20:25.740Z,9.17
2019-05-03T08:23:09.285Z,12.13
2019-05-03T08:25:56.462Z,13.50
2019-05-03T08:28:29.974Z,10.03
2019-05-03T08:31:47.258Z,12.00
2019-05-03T08:34:35.626Z,11.00
2019-05-03T08:37:18.000Z,12.53
2019-05-03T08:40:46.395Z,12.57
2019-05-03T08:43:15.629Z,11.67
2019-05-03T08:45:49.618Z,11.80
2019-05-03T08:48:28.201Z,12.30
2019-05-03T08:51:04.487Z,16.30
2019-05-03T08:53:45.897Z,14.37
2019-05-03T08:56:16.657Z,11.50
2019-05-03T08:59:10.361Z,12.30
2019-05-03T09:01:46.719Z,14.43
2019-05-03T09:04:35.988Z,11.67
2019-05-03T09:07:01.905Z,12.10
2019-05-03T09:10:18.760Z,13.13
2019-05-03T09:13:34.279Z,9.93
2019-05-03T09:16:07.428Z,11.47
2019-05-03T09:18:41.949Z,12.97
2019-05-03T09:21:32.158Z,13.03
2019-05-03T09:24:17.341Z,10.43
2019-05-03T09:26:56.291Z,10.10
2019-05-03T09:30:06.878Z,10.27
2019-05-03T09:32:40.899Z,9.77
2019-05-03T09:35:36.272Z,10.50
2019-05-03T09:38:07.963Z,12.57
2019-05-03T09:40:45.374Z,7.80
2019-05-03T09:43:22.396Z,9.33
2019-05-03T09:45:54.683Z,9.33
2019-05-03T09:48:31.583Z,8.90
2019-05-03T09:51:14.462Z,9.30
2019-05-03T09:54:00.605Z,9.33
2019-05-03T09:57:06.366Z,9.70
2019-05-03T10:00:16.180Z,9.97
2019-05-03T10:02:45.780Z,9.40
2019-05-03T10:05:25.543Z,7.33
2019-05-03T10:08:01.431Z,10.60
2019-05-03T10:10:37.880Z,9.50
2019-05-03T10:13:26.958Z,8.53
2019-05-03T10:16:07.328Z,9.53
2019-05-03T10:19:03.092Z,9.07
2019-05-03T10:21:48.742Z,12.50
2019-05-03T10:24:26.205Z,16.03
2019-05-03T10:27:05.625Z,9.20
2019-05-03T10:30:09.060Z,8.53
2019-05-03T10:32:46.624Z,7.33
2019-05-03T10:35:54.440Z,8.30
2019-05-03T10:38:39.859Z,9.43
2019-05-03T10:41:32.002Z,7.20
2019-05-03T10:44:14.912Z,8.43
2019-05-03T10:46:45.306Z,7.47
2019-05-03T10:49:29.673Z,8.70
2019-05-03T10:52:08.188Z,7.60
2019-05-03T10:55:01.693Z,8.63
2019-05-03T10:57:41.335Z,12.70
2019-05-03T11:00:44.251Z,9.77
2019-05-03T11:02:59.906Z,9.83
2019-05-03T11:05:27.664Z,10.33
2019-05-03T11:08:04.908Z,9.20
2019-05-03T11:10:43.344Z,7.60
2019-05-03T11:13:22.427Z,9.93
2019-05-03T11:15:54.914Z,10.77
2019-05-03T11:18:25.274Z,7.57
2019-05-03T11:20:57.964Z,8.90
2019-05-03T11:23:34.576Z,9.27
2019-05-03T11:26:02.836Z,9.80
2019-05-03T11:28:31.182Z,7.03
2019-05-03T11:31:29.086Z,7.57
2019-05-03T11:34:00.925Z,6.57
2019-05-03T11:36:40.006Z,6.60
2019-05-03T11:39:11.612Z,9.73
2019-05-03T11:41:45.120Z,8.27
2019-05-03T11:44:51.123Z,7.93
2019-05-03T11:47:19.396Z,7.57
2019-05-03T11:49:47.319Z,7.70
2019-05-03T11:52:17.584Z,9.80
2019-05-03T11:54:45.785Z,13.23
2019-05-03T11:57:27.006Z,9.07
2019-05-03T11:59:57.636Z,9.93
2019-05-03T12:02:55.439Z,8.97
2019-05-03T12:05:33.437Z,8.30
2019-05-03T12:08:15.849Z,6.83
2019-05-03T12:10:53.492Z,9.60
2019-05-03T12:13:36.199Z,10.50
2019-05-03T12:16:31.993Z,9.13
2019-05-03T12:19:31.197Z,6.93
2019-05-03T12:22:08.483Z,9.17
2019-05-03T12:24:46.526Z,8.20
2019-05-03T12:27:51.713Z,11.03
2019-05-03T12:30:59.620Z,10.80
2019-05-03T12:33:35.415Z,10.23
2019-05-03T12:36:05.352Z,8.60
2019-05-03T12:38:34.988Z,6.93
2019-05-03T12:41:05.364Z,7.70
2019-05-03T12:43:37.831Z,8.10
2019-05-03T12:46:05.829Z,7.97
2019-05-03T12:48:40.332Z,10.37
2019-05-03T12:51:15.232Z,8.13
2019-05-03T12:54:01.028Z,7.90
2019-05-03T12:56:46.964Z,7.60
2019-05-03T12:59:39.394Z,7.70
2019-05-03T13:02:35.738Z,9.00
2019-05-03T13:05:08.122Z,7.43
2019-05-03T13:07:42.140Z,7.63
2019-05-03T13:10:10.542Z,7.30
2019-05-03T13:12:52.805Z,7.43
2019-05-03T13:15:20.177Z,6.43
2019-05-03T13:17:58.287Z,5.97
2019-05-03T13:20:31.302Z,10.00
2019-05-03T13:23:05.523Z,7.33
2019-05-03T13:25:38.402Z,7.37
2019-05-03T13:28:09.178Z,6.70
2019-05-03T13:30:38.789Z,6.17
2019-05-03T13:33:23.146Z,8.10
2019-05-03T13:36:12.488Z,6.57
2019-05-03T13:42:53.055Z,8.07
2019-05-03T13:45:16.755Z,10.07
2019-05-03T13:48:04.989Z,7.03
2019-05-03T13:50:35.173Z,7.20
2019-05-03T13:53:04.911Z,7.13
2019-05-03T13:56:30.074Z,10.00
2019-05-03T13:59:41.111Z,6.67
2019-05-03T14:03:59.878Z,5.90
2019-05-03T14:13:05.622Z,6.00
2019-05-03T14:13:59.228Z,5.60
2019-05-03T14:16:27.237Z,7.23
2019-05-03T14:19:02.519Z,5.57
2019-05-03T14:21:39.502Z,9.70
2019-05-03T14:24:09.138Z,7.70
2019-05-03T14:26:38.029Z,6.87
2019-05-03T14:29:09.885Z,5.80
2019-05-03T14:31:41.581Z,7.70
2019-05-03T14:34:10.161Z,6.77
2019-05-03T14:36:41.133Z,6.13
2019-05-03T14:39:11.176Z,7.00
2019-05-03T14:41:46.778Z,5.73
2019-05-03T14:44:18.029Z,5.73
2019-05-03T14:46:48.652Z,5.67
2019-05-03T14:49:17.181Z,6.17
2019-05-03T14:51:45.981Z,4.57
2019-05-03T14:54:14.564Z,4.87
2019-05-03T14:56:53.895Z,6.13
2019-05-03T14:59:50.281Z,6.57
2019-05-03T15:02:40.169Z,7.30
2019-05-03T15:04:59.738Z,3.77
2019-05-03T15:07:30.412Z,5.07
2019-05-03T15:09:58.593Z,5.53
2019-05-03T15:12:28.167Z,7.10
2019-05-03T15:14:56.369Z,5.53
2019-05-03T15:17:24.816Z,4.27
2019-05-03T15:19:54.747Z,4.60
2019-05-03T15:22:26.174Z,3.90
2019-05-03T15:24:54.706Z,4.07
2019-05-03T15:27:26.747Z,7.03
2019-05-03T15:29:57.867Z,4.10
2019-05-03T15:32:27.411Z,6.03
2019-05-03T15:34:57.723Z,5.10
2019-05-03T15:37:27.736Z,4.20
2019-05-03T15:39:56.480Z,4.53
2019-05-03T15:42:29.394Z,5.17
2019-05-03T15:45:16.512Z,3.20
2019-05-03T15:48:05.466Z,3.30
2019-05-03T15:50:44.618Z,2.53
2019-05-03T15:53:15.183Z,2.43
2019-05-03T15:55:43.214Z,1.83
2019-05-03T15:58:15.370Z,3.57
2019-05-03T16:00:45.785Z,3.20
2019-05-03T16:03:17.147Z,2.90
2019-05-03T16:05:49.862Z,3.03
2019-05-03T16:08:18.181Z,2.93
2019-05-03T16:10:48.171Z,4.10
2019-05-03T16:13:16.515Z,2.50
2019-05-03T16:15:44.660Z,2.97
2019-05-03T16:18:16.040Z,4.07
2019-05-03T16:20:45.056Z,4.57
2019-05-03T16:23:15.460Z,5.10
2019-05-03T16:25:45.001Z,9.23
2019-05-03T16:28:24.840Z,5.77
2019-05-03T16:31:00.244Z,4.10
2019-05-03T16:33:28.409Z,4.47
2019-05-03T16:35:57.915Z,5.80
2019-05-03T16:38:27.884Z,5.17
2019-05-03T16:40:56.074Z,4.33
2019-05-03T16:43:26.216Z,4.10
2019-05-03T16:45:55.360Z,4.33
2019-05-03T16:48:25.528Z,4.17
2019-05-03T16:50:53.931Z,4.23
2019-05-03T16:53:25.492Z,6.07
2019-05-03T16:55:54.820Z,5.93
2019-05-03T16:58:24.725Z,3.80
2019-05-03T17:00:55.276Z,4.00
2019-05-03T17:03:38.450Z,4.03
2019-05-03T17:06:23.162Z,3.43
2019-05-03T17:09:09.530Z,5.10
2019-05-03T17:11:38.150Z,4.20
2019-05-03T17:14:15.500Z,6.73
2019-05-03T17:16:42.454Z,4.77
2019-05-03T17:19:11.297Z,8.63
2019-05-03T17:21:51.646Z,5.57
2019-05-03T17:24:35.296Z,5.47
2019-05-03T17:27:07.856Z,5.97
2019-05-03T17:29:56.840Z,6.93
2019-05-03T17:32:30.492Z,4.83
2019-05-03T17:34:58.981Z,4.57
2019-05-03T17:37:27.197Z,5.70
2019-05-03T17:40:21.453Z,4.23
2019-05-03T17:43:14.616Z,4.97
2019-05-03T17:45:49.135Z,4.77
2019-05-03T17:48:17.528Z,4.70
2019-05-03T17:50:46.302Z,6.27
2019-05-03T17:53:57.206Z,5.27
2019-05-03T17:56:52.853Z,4.47
2019-05-03T18:00:00.371Z,4.87
2019-05-03T18:02:45.225Z,4.23
2019-05-03T18:05:56.499Z,4.90
2019-05-03T18:08:44.517Z,6.47
2019-05-03T18:11:17.854Z,6.50
2019-05-03T18:13:50.526Z,5.70
2019-05-03T18:31:55.085Z,5.63
2019-05-03T18:37:32.388Z,5.30
2019-05-03T18:40:00.727Z,6.40
2019-05-03T18:42:35.725Z,6.40
2019-05-03T18:45:20.466Z,5.77
2019-05-03T18:48:01.718Z,6.33
2019-05-03T18:50:31.816Z,6.47
2019-05-03T18:52:59.832Z,6.07
2019-05-03T18:55:27.776Z,4.77
2019-05-03T18:57:57.892Z,5.53
2019-05-03T19:00:29.898Z,5.40
2019-05-03T19:02:58.148Z,5.60
2019-05-03T19:05:28.304Z,6.90
2019-05-03T19:08:07.808Z,6.10
2019-05-03T19:10:45.729Z,6.70
2019-05-03T19:13:34.847Z,5.97
2019-05-03T19:16:12.081Z,8.90
2019-05-03T19:18:40.240Z,5.60
2019-05-03T19:21:08.257Z,7.60
2019-05-03T19:23:36.286Z,7.77
2019-05-03T19:26:11.059Z,7.07
2019-05-03T19:28:39.455Z,6.93
2019-05-03T19:31:11.177Z,6.80
2019-05-03T19:33:42.100Z,6.60
2019-05-03T19:36:10.233Z,8.43
2019-05-03T19:38:39.869Z,8.73
2019-05-03T19:41:07.973Z,9.60
2019-05-03T19:43:38.130Z,8.33
2019-05-03T19:46:07.493Z,8.47
2019-05-03T19:48:50.631Z,9.53
2019-05-03T19:51:19.137Z,8.60
2019-05-03T19:53:51.909Z,10.30
2019-05-03T19:56:21.238Z,7.63
2019-05-03T19:58:50.210Z,7.73
2019-05-03T20:01:41.415Z,7.70
2019-05-03T20:04:36.445Z,6.47
2019-05-03T20:07:19.370Z,7.37
2019-05-03T20:09:49.336Z,6.57
2019-05-03T20:12:17.480Z,6.87
2019-05-03T20:14:45.751Z,7.23
2019-05-03T20:17:14.821Z,8.00
2019-05-03T20:19:45.047Z,7.90
2019-05-03T20:22:15.018Z,8.07
2019-05-03T20:24:44.933Z,9.00
2019-05-03T20:27:15.021Z,6.93
2019-05-03T20:29:44.334Z,9.77
2019-05-03T20:32:13.064Z,7.17
2019-05-03T20:34:52.046Z,7.77
2019-05-03T20:37:30.115Z,9.70
2019-05-03T20:39:58.247Z,7.60
2019-05-03T20:42:44.841Z,9.90
2019-05-03T20:45:18.312Z,7.27
2019-05-03T20:47:57.596Z,10.67
2019-05-03T20:50:27.137Z,7.77
2019-05-03T20:52:55.151Z,8.97
2019-05-03T20:55:23.051Z,6.27
2019-05-03T20:57:50.661Z,7.00
2019-05-03T21:00:21.516Z,9.23
2019-05-03T21:02:53.382Z,7.43
2019-05-03T21:05:27.758Z,8.47
2019-05-03T21:07:48.130Z,9.70
2019-05-03T21:10:15.808Z,8.47
2019-05-03T21:12:43.471Z,8.07
2019-05-03T21:15:18.939Z,7.43
2019-05-03T21:17:55.551Z,7.80
2019-05-03T21:21:00.986Z,8.47
2019-05-03T21:23:30.257Z,7.53
2019-05-03T21:26:12.480Z,9.80
2019-05-03T21:28:34.534Z,7.10
2019-05-03T21:31:02.626Z,7.97
2019-05-03T21:33:30.391Z,6.87
2019-05-03T21:35:57.983Z,7.90
2019-05-03T21:38:25.541Z,9.43
2019-05-03T21:40:54.646Z,8.20
2019-05-03T21:43:22.375Z,9.40
2019-05-03T21:45:55.002Z,10.20
2019-05-03T21:48:26.567Z,9.37
2019-05-03T21:50:54.214Z,11.10
2019-05-03T21:53:21.771Z,12.10
2019-05-03T21:55:49.376Z,11.10
2019-05-03T21:58:16.916Z,9.33
2019-05-03T22:00:59.103Z,7.30
2019-05-03T22:03:26.676Z,9.87
2019-05-03T22:05:57.405Z,6.33
2019-05-03T22:08:24.858Z,6.90
2019-05-03T22:10:52.654Z,7.67
2019-05-03T22:13:20.220Z,8.37
2019-05-03T22:15:55.627Z,7.07
2019-05-03T22:18:27.395Z,9.73
2019-05-03T22:21:10.580Z,19.87
2019-05-03T22:23:49.653Z,9.80
2019-05-03T22:26:17.183Z,7.73
2019-05-03T22:28:44.761Z,8.60
2019-05-03T22:31:12.288Z,9.57
2019-05-03T22:33:39.909Z,14.63
2019-05-03T22:36:08.919Z,8.30
2019-05-03T22:38:38.505Z,8.53
2019-05-03T22:41:06.119Z,7.73
2019-05-03T22:43:34.856Z,11.23
2019-05-03T22:46:02.573Z,11.30
2019-05-03T22:48:30.153Z,10.83
2019-05-03T22:50:57.687Z,8.20
2019-05-03T22:53:25.437Z,8.93
2019-05-03T22:55:54.323Z,11.30
2019-05-03T22:58:22.012Z,9.10
2019-05-03T23:00:49.614Z,73.57
2019-05-03T23:03:17.208Z,16.17
2019-05-03T23:05:45.592Z,9.73
2019-05-03T23:08:14.831Z,9.67
2019-05-03T23:10:42.537Z,8.60
2019-05-03T23:13:10.056Z,6.80
2019-05-03T23:15:37.931Z,8.67
2019-05-03T23:18:05.750Z,7.60
2019-05-03T23:20:56.028Z,8.20
2019-05-03T23:23:41.471Z,7.80
2019-05-03T23:26:09.080Z,8.40
2019-05-03T23:28:36.684Z,8.20
2019-05-03T23:31:05.361Z,7.93
2019-05-03T23:33:34.481Z,11.47
2019-05-03T23:36:02.045Z,12.30
2019-05-03T23:38:29.660Z,8.30
2019-05-03T23:40:57.163Z,12.77
2019-05-03T23:43:25.176Z,7.47
2019-05-03T23:45:54.483Z,11.10
2019-05-03T23:48:22.141Z,14.63
2019-05-03T23:50:49.717Z,9.70
2019-05-03T23:53:17.220Z,10.03
2019-05-03T23:55:48.527Z,9.70
2019-05-03T23:58:16.062Z,8.73
